createdAt,value
2019-01-21T00:02:28.596Z,30.95
2019-01-21T00:07:33.012Z,32.67
2019-01-21T00:12:37.411Z,29.55
2019-01-21T00:17:41.804Z,30.40
2019-01-21T00:22:47.270Z,29.10
2019-01-21T00:27:51.580Z,29.30
2019-01-21T00:32:55.983Z,29.57
2019-01-21T00:38:00.391Z,36.43
2019-01-21T00:43:04.819Z,31.00
2019-01-21T00:48:09.205Z,30.73
2019-01-21T00:53:13.584Z,32.05
2019-01-21T00:58:18.022Z,30.53
2019-01-21T01:03:22.354Z,29.57
2019-01-21T01:08:26.738Z,34.33
2019-01-21T01:13:31.265Z,28.90
2019-01-21T01:18:35.643Z,29.70
2019-01-21T01:23:40.028Z,30.47
2019-01-21T01:28:44.565Z,30.87
2019-01-21T01:33:48.928Z,30.17
2019-01-21T01:38:53.391Z,30.80
2019-01-21T01:43:57.851Z,32.63
2019-01-21T01:49:02.392Z,30.97
2019-01-21T01:54:06.807Z,28.80
2019-01-21T01:59:11.253Z,27.93
2019-01-21T02:04:15.675Z,32.17
2019-01-21T02:09:20.043Z,28.90
2019-01-21T02:14:24.403Z,30.13
2019-01-21T02:19:29.898Z,29.80
2019-01-21T02:24:36.028Z,26.93
2019-01-21T02:29:49.481Z,27.07
2019-01-21T02:34:57.089Z,28.87
2019-01-21T02:40:07.261Z,30.33
2019-01-21T02:45:17.597Z,29.33
2019-01-21T02:50:25.187Z,29.30
2019-01-21T02:55:51.129Z,27.50
2019-01-21T03:01:10.644Z,29.70
2019-01-21T03:06:23.796Z,30.73
2019-01-21T03:11:46.415Z,31.67
2019-01-21T03:17:10.561Z,26.87
2019-01-21T03:22:33.401Z,29.10
2019-01-21T03:28:15.871Z,28.30
2019-01-21T03:33:23.445Z,26.27
2019-01-21T03:38:44.218Z,32.90
2019-01-21T03:43:57.302Z,29.77
2019-01-21T03:49:04.862Z,28.70
2019-01-21T03:54:12.407Z,31.33
2019-01-21T03:59:35.054Z,31.30
2019-01-21T04:04:51.516Z,31.90
2019-01-21T04:10:15.824Z,33.00
2019-01-21T04:15:28.930Z,27.47
2019-01-21T04:20:57.522Z,29.13
2019-01-21T04:26:26.062Z,31.40
2019-01-21T04:31:54.093Z,33.87
2019-01-21T04:37:04.702Z,25.83
2019-01-21T04:42:18.009Z,29.57
2019-01-21T04:47:49.875Z,31.20
2019-01-21T04:53:03.124Z,29.43
2019-01-21T04:58:38.486Z,28.03
2019-01-21T05:03:50.026Z,28.03
2019-01-21T05:09:00.353Z,29.67
2019-01-21T05:14:27.957Z,32.57
2019-01-21T05:19:58.261Z,31.70
2019-01-21T05:25:14.722Z,31.47
2019-01-21T05:30:25.561Z,33.10
2019-01-21T05:35:54.636Z,28.73
2019-01-21T05:41:05.057Z,32.63
2019-01-21T05:46:28.923Z,31.53
2019-01-21T05:51:56.071Z,35.20
2019-01-21T05:57:07.304Z,38.90
2019-01-21T06:02:33.182Z,31.77
2019-01-21T06:07:46.549Z,36.03
2019-01-21T06:13:02.878Z,31.43
2019-01-21T06:18:16.441Z,37.87
2019-01-21T06:23:32.587Z,35.03
2019-01-21T06:28:46.034Z,39.48
2019-01-21T06:34:26.983Z,45.60
2019-01-21T06:39:58.846Z,43.43
2019-01-21T06:45:31.379Z,43.80
2019-01-21T06:50:41.641Z,41.40
2019-01-21T06:56:01.040Z,41.37
2019-01-21T07:01:14.494Z,43.57
2019-01-21T07:06:46.275Z,44.53
2019-01-21T07:11:56.472Z,41.40
2019-01-21T07:17:09.612Z,43.23
2019-01-21T07:22:22.692Z,42.03
2019-01-21T07:27:32.844Z,43.67
2019-01-21T07:32:43.163Z,43.27
2019-01-21T07:37:56.668Z,33.40
2019-01-21T07:43:07.098Z,35.53
2019-01-21T07:48:26.644Z,34.20
2019-01-21T07:53:58.177Z,33.77
2019-01-21T07:59:14.824Z,35.13
2019-01-21T08:04:22.457Z,33.77
2019-01-21T08:09:45.284Z,35.23
2019-01-21T08:14:55.582Z,33.33
2019-01-21T08:20:21.111Z,38.13
2019-01-21T08:25:55.428Z,38.60
2019-01-21T08:31:05.685Z,36.23
2019-01-21T08:36:38.591Z,40.90
2019-01-21T08:41:51.669Z,35.07
2019-01-21T08:47:08.084Z,33.70
2019-01-21T08:52:15.608Z,31.30
2019-01-21T08:57:25.689Z,33.37
2019-01-21T09:03:03.563Z,35.17
2019-01-21T09:08:37.760Z,37.10
2019-01-21T09:13:47.654Z,37.73
2019-01-21T09:19:00.986Z,39.73
2019-01-21T09:24:32.815Z,40.67
2019-01-21T09:29:46.128Z,37.57
2019-01-21T09:35:18.637Z,37.57
2019-01-21T09:40:32.055Z,45.13
2019-01-21T09:45:56.091Z,39.00
2019-01-21T09:51:03.669Z,37.93
2019-01-21T09:56:08.083Z,38.93
2019-01-21T10:01:12.470Z,39.10
2019-01-21T10:06:19.337Z,42.03
2019-01-21T10:11:29.635Z,42.00
2019-01-21T10:16:39.858Z,41.33
2019-01-21T10:22:06.778Z,42.27
2019-01-21T10:27:23.392Z,44.33
2019-01-21T10:32:55.156Z,48.57
2019-01-21T10:38:08.686Z,49.50
2019-01-21T10:43:39.212Z,43.03
2019-01-21T10:48:58.748Z,43.67
2019-01-21T10:54:12.187Z,43.90
2019-01-21T10:59:45.509Z,42.13
2019-01-21T11:04:55.756Z,42.33
2019-01-21T11:10:24.878Z,40.40
2019-01-21T11:15:32.510Z,42.23
2019-01-21T11:21:01.433Z,45.08
2019-01-21T11:26:18.028Z,42.03
2019-01-21T11:31:28.515Z,43.87
2019-01-21T11:36:54.127Z,45.70
2019-01-21T11:42:23.206Z,39.83
2019-01-21T11:47:30.770Z,45.63
2019-01-21T11:52:41.156Z,42.47
2019-01-21T11:58:06.654Z,43.60
2019-01-21T12:03:23.646Z,42.87
2019-01-21T12:08:43.629Z,43.43
2019-01-21T12:14:09.569Z,41.20
2019-01-21T12:19:20.073Z,40.93
2019-01-21T12:24:25.476Z,42.07
2019-01-21T12:29:41.840Z,42.73
2019-01-21T12:34:55.376Z,43.93
2019-01-21T12:40:15.035Z,43.37
2019-01-21T12:45:25.354Z,47.73
2019-01-21T12:50:52.797Z,41.80
2019-01-21T12:56:16.841Z,44.77
2019-01-21T13:01:33.313Z,44.57
2019-01-21T13:06:55.804Z,41.03
2019-01-21T13:12:12.345Z,42.57
2019-01-21T13:17:19.915Z,45.00
2019-01-21T13:23:00.922Z,47.10
2019-01-21T13:28:28.016Z,46.70
2019-01-21T13:33:38.345Z,39.20
2019-01-21T13:38:55.134Z,40.77
2019-01-21T13:44:23.551Z,39.63
2019-01-21T13:49:48.124Z,38.30
2019-01-21T13:55:17.243Z,42.37
2019-01-21T14:00:33.374Z,42.50
2019-01-21T14:05:56.332Z,44.27
2019-01-21T14:11:27.681Z,38.50
2019-01-21T14:17:00.997Z,40.90
2019-01-21T14:22:41.663Z,42.20
2019-01-21T14:27:51.630Z,40.57
2019-01-21T14:33:10.900Z,39.53
2019-01-21T14:38:30.743Z,41.37
2019-01-21T14:43:41.226Z,41.63
2019-01-21T14:48:54.781Z,39.27
2019-01-21T14:54:17.282Z,40.27
2019-01-21T14:59:38.022Z,39.17
2019-01-21T15:05:05.074Z,39.27
2019-01-21T15:10:18.569Z,43.30
2019-01-21T15:15:54.491Z,39.57
2019-01-21T15:21:07.771Z,41.70
2019-01-21T15:26:27.400Z,39.95
2019-01-21T15:31:40.829Z,45.63
2019-01-21T15:37:21.568Z,41.63
2019-01-21T15:42:34.669Z,44.70
2019-01-21T15:47:51.189Z,44.27
2019-01-21T15:53:01.552Z,49.97
2019-01-21T15:58:09.103Z,46.13
2019-01-21T16:03:25.707Z,48.67
2019-01-21T16:08:33.406Z,45.10
2019-01-21T16:13:44.043Z,46.73
2019-01-21T16:18:57.581Z,43.63
2019-01-21T16:24:24.793Z,43.37
2019-01-21T16:29:37.628Z,51.63
2019-01-21T16:35:14.090Z,46.03
2019-01-21T16:40:27.302Z,42.43
2019-01-21T16:45:31.660Z,42.73
2019-01-21T16:50:36.083Z,38.80
2019-01-21T16:55:40.519Z,39.67
2019-01-21T17:00:45.163Z,43.20
2019-01-21T17:05:49.536Z,41.37
2019-01-21T17:10:53.937Z,54.03
2019-01-21T17:15:58.339Z,45.57
2019-01-21T17:21:02.809Z,42.53
2019-01-21T17:26:07.363Z,41.90
2019-01-21T17:31:11.746Z,40.07
2019-01-21T17:36:16.095Z,43.50
2019-01-21T17:41:20.626Z,47.13
2019-01-21T17:46:24.995Z,39.97
2019-01-21T17:51:33.768Z,43.77
2019-01-21T17:56:35.678Z,41.20
2019-01-21T18:01:40.036Z,45.77
2019-01-21T18:06:44.543Z,40.73
2019-01-21T18:11:49.281Z,47.13
2019-01-21T18:16:53.716Z,49.80
2019-01-21T18:21:58.193Z,49.70
2019-01-21T18:27:02.554Z,47.47
2019-01-21T18:32:06.902Z,48.67
2019-01-21T18:37:11.427Z,46.73
2019-01-21T18:42:15.857Z,51.80
2019-01-21T18:47:20.270Z,51.90
2019-01-21T18:52:24.663Z,55.57
2019-01-21T18:57:29.039Z,52.63
2019-01-21T19:02:33.435Z,50.43
2019-01-21T19:07:37.788Z,54.93
2019-01-21T19:12:42.243Z,51.40
2019-01-21T19:17:46.596Z,50.53
2019-01-21T19:22:50.991Z,49.43
2019-01-21T19:27:55.439Z,46.97
2019-01-21T19:32:59.795Z,51.47
2019-01-21T19:38:04.409Z,46.80
2019-01-21T19:43:09.498Z,49.27
2019-01-21T19:48:15.428Z,49.53
2019-01-21T19:53:22.059Z,48.70
2019-01-21T19:58:26.855Z,46.77
2019-01-21T20:03:31.487Z,46.00
2019-01-21T20:08:36.403Z,48.43
2019-01-21T20:13:41.127Z,48.60
2019-01-21T20:18:47.443Z,47.53
2019-01-21T20:23:52.900Z,46.43
2019-01-21T20:28:57.258Z,49.40
2019-01-21T20:34:01.716Z,45.83
2019-01-21T20:39:08.205Z,50.43
2019-01-21T20:44:12.697Z,46.93
2019-01-21T20:49:17.240Z,47.00
2019-01-21T20:54:21.717Z,42.30
2019-01-21T20:59:26.102Z,43.10
2019-01-21T21:04:33.621Z,44.38
2019-01-21T21:09:38.281Z,44.73
2019-01-21T21:14:44.043Z,45.63
2019-01-21T21:19:48.716Z,44.30
2019-01-21T21:24:53.418Z,45.20
2019-01-21T21:29:58.564Z,47.10
2019-01-21T21:35:03.208Z,41.23
2019-01-21T21:40:11.010Z,41.80
2019-01-21T21:45:17.753Z,41.33
2019-01-21T21:50:25.369Z,45.53
2019-01-21T21:55:29.947Z,49.67
2019-01-21T22:00:34.629Z,46.17
2019-01-21T22:05:39.271Z,45.20
2019-01-21T22:10:43.934Z,48.97
2019-01-21T22:15:48.883Z,47.77
2019-01-21T22:20:53.575Z,43.93
2019-01-21T22:25:58.158Z,45.13
2019-01-21T22:31:02.837Z,42.73
2019-01-21T22:36:07.202Z,43.50
2019-01-21T22:41:11.609Z,44.53
2019-01-21T22:46:15.973Z,40.87
2019-01-21T22:51:20.354Z,47.00
2019-01-21T22:56:24.711Z,43.90
2019-01-21T23:01:30.587Z,40.73
2019-01-21T23:06:35.039Z,41.57
2019-01-21T23:11:39.760Z,49.73
2019-01-21T23:16:44.149Z,40.40
2019-01-21T23:21:48.526Z,42.48
2019-01-21T23:26:53.173Z,45.10
2019-01-21T23:31:58.779Z,42.88
2019-01-21T23:37:03.525Z,38.60
2019-01-21T23:42:07.906Z,41.33
2019-01-21T23:47:12.379Z,44.40
2019-01-21T23:52:16.833Z,39.77
2019-01-21T23:57:21.237Z,38.07
